createdAt,value
2022-08-17T00:00:00.025Z,94718.47
2022-08-17T00:02:27.709Z,94706.97
2022-08-17T00:04:55.407Z,94704.38
2022-08-17T00:07:22.975Z,94715.91
2022-08-17T00:09:49.909Z,94719.69
2022-08-17T00:12:42.664Z,94715.06
2022-08-17T00:15:05.841Z,94722.47
2022-08-17T00:17:37.921Z,94714.13
2022-08-17T00:20:05.476Z,94720.38
2022-08-17T00:22:36.303Z,94721.16
2022-08-17T00:25:10.467Z,94720.94
2022-08-17T00:27:37.211Z,94722.03
2022-08-17T00:30:10.164Z,94710.50
2022-08-17T00:33:11.987Z,94707.31
2022-08-17T00:35:34.404Z,94713.66
2022-08-17T00:38:01.146Z,94714.69
2022-08-17T00:40:40.034Z,94711.06
2022-08-17T00:43:47.110Z,94706.03
2022-08-17T00:46:18.033Z,94706.81
2022-08-17T00:48:45.781Z,94709.25
2022-08-17T00:51:22.782Z,94700.28
2022-08-17T00:54:04.303Z,94702.66
2022-08-17T00:56:37.905Z,94706.91
2022-08-17T00:59:07.507Z,94684.88
2022-08-17T01:01:35.214Z,94692.19
2022-08-17T01:04:02.886Z,94703.22
2022-08-17T01:06:30.070Z,94703.25
2022-08-17T01:08:59.480Z,94697.78
2022-08-17T01:11:27.813Z,94703.88
2022-08-17T01:13:54.686Z,94703.38
2022-08-17T01:16:28.697Z,94707.09
2022-08-17T01:18:59.483Z,94705.56
2022-08-17T01:21:36.464Z,94709.25
2022-08-17T01:24:03.966Z,94707.72
2022-08-17T01:26:33.054Z,94709.84
2022-08-17T01:29:02.389Z,94705.94
2022-08-17T01:31:33.686Z,94709.31
2022-08-17T01:34:03.059Z,94706.72
2022-08-17T01:36:30.543Z,94708.28
2022-08-17T01:38:57.345Z,94699.88
2022-08-17T01:41:24.638Z,94688.06
2022-08-17T01:43:56.884Z,94704.63
2022-08-17T01:46:27.880Z,94691.50
2022-08-17T01:48:56.376Z,94702.50
2022-08-17T01:51:26.238Z,94704.63
2022-08-17T01:53:58.077Z,94708.84
2022-08-17T01:56:27.313Z,94672.66
2022-08-17T01:58:54.624Z,94713.06
2022-08-17T02:01:25.265Z,94701.47
2022-08-17T02:03:59.747Z,94700.19
2022-08-17T02:06:31.452Z,94709.34
2022-08-17T02:09:16.513Z,94702.03
2022-08-17T02:11:45.276Z,94697.31
2022-08-17T02:14:13.838Z,94702.28
2022-08-17T02:16:41.299Z,94705.16
2022-08-17T02:19:14.730Z,94698.88
2022-08-17T02:21:44.457Z,94709.38
2022-08-17T02:24:17.771Z,94700.72
2022-08-17T02:27:05.451Z,94691.00
2022-08-17T02:29:32.555Z,94699.41
2022-08-17T02:32:00.256Z,94695.19
2022-08-17T02:34:27.576Z,94697.81
2022-08-17T02:36:54.485Z,94694.66
2022-08-17T02:39:21.732Z,94704.13
2022-08-17T02:41:48.947Z,94714.63
2022-08-17T02:44:38.909Z,94701.47
2022-08-17T02:47:04.166Z,94719.84
2022-08-17T02:49:31.033Z,94724.56
2022-08-17T02:51:58.719Z,94712.75
2022-08-17T02:54:39.706Z,94708.31
2022-08-17T02:57:10.067Z,94713.84
2022-08-17T02:59:38.755Z,94708.31
2022-08-17T03:02:12.482Z,94719.31
2022-08-17T03:04:39.204Z,94724.03
2022-08-17T03:07:06.682Z,94716.69
2022-08-17T03:09:33.463Z,94723.50
2022-08-17T03:12:12.924Z,94724.03
2022-08-17T03:14:41.926Z,94730.31
2022-08-17T03:17:10.300Z,94729.78
2022-08-17T03:19:37.643Z,94721.91
2022-08-17T03:22:36.864Z,94728.19
2022-08-17T03:24:56.875Z,94732.09
2022-08-17T03:27:23.627Z,94731.84
2022-08-17T03:29:50.495Z,94732.09
2022-08-17T03:32:17.468Z,94728.19
2022-08-17T03:34:44.313Z,94740.78
2022-08-17T03:37:11.115Z,94730.56
2022-08-17T03:39:38.334Z,94743.38
2022-08-17T03:42:31.859Z,94743.13
2022-08-17T03:45:00.613Z,94743.38
2022-08-17T03:47:46.767Z,94739.16
2022-08-17T03:50:33.933Z,94746.47
2022-08-17T03:53:21.842Z,94755.34
2022-08-17T03:56:07.220Z,94757.44
2022-08-17T03:58:34.084Z,94761.66
2022-08-17T04:01:01.405Z,94747.50
2022-08-17T04:03:28.690Z,94755.88
2022-08-17T04:05:55.630Z,94753.31
2022-08-17T04:08:22.550Z,94760.16
2022-08-17T04:10:49.526Z,94763.31
2022-08-17T04:13:16.260Z,94737.84
2022-08-17T04:15:51.894Z,94758.38
2022-08-17T04:18:19.201Z,94762.88
2022-08-17T04:20:46.022Z,94762.34
2022-08-17T04:23:17.301Z,94767.34
2022-08-17T04:25:50.645Z,94739.78
2022-08-17T04:28:19.064Z,94776.53
2022-08-17T04:30:47.394Z,94763.44
2022-08-17T04:33:17.952Z,94767.63
2022-08-17T04:35:47.898Z,94765.00
2022-08-17T04:38:20.946Z,94776.78
2022-08-17T04:41:06.614Z,94786.78
2022-08-17T04:43:35.444Z,94759.22
2022-08-17T04:46:09.030Z,94774.91
2022-08-17T04:48:57.434Z,94779.84
2022-08-17T04:51:34.401Z,94778.47
2022-08-17T04:54:04.667Z,94784.19
2022-08-17T04:56:32.992Z,94777.28
2022-08-17T04:59:08.964Z,94783.00
2022-08-17T05:01:38.945Z,94790.25
2022-08-17T05:04:33.092Z,94790.13
2022-08-17T05:06:58.012Z,94798.97
2022-08-17T05:09:25.251Z,94773.22
2022-08-17T05:11:52.259Z,94792.13
2022-08-17T05:14:22.623Z,94788.91
2022-08-17T05:17:00.137Z,94795.13
2022-08-17T05:19:28.113Z,94776.66
2022-08-17T05:21:55.078Z,94794.97
2022-08-17T05:24:42.879Z,94783.09
2022-08-17T05:27:08.640Z,94808.69
2022-08-17T05:29:36.014Z,94802.31
2022-08-17T05:32:38.614Z,94802.34
2022-08-17T05:35:00.018Z,94813.28
2022-08-17T05:37:26.931Z,94802.63
2022-08-17T05:39:54.514Z,94804.06
2022-08-17T05:42:21.945Z,94818.09
2022-08-17T05:44:48.806Z,94811.56
2022-08-17T05:47:15.840Z,94809.84
2022-08-17T05:49:42.619Z,94817.97
2022-08-17T05:52:24.429Z,94816.66
2022-08-17T05:54:57.316Z,94814.41
2022-08-17T05:57:30.709Z,94811.47
2022-08-17T06:00:11.082Z,94808.03
2022-08-17T06:03:04.920Z,94806.06
2022-08-17T06:05:54.122Z,94800.19
2022-08-17T06:08:34.380Z,94812.16
2022-08-17T06:11:22.878Z,94807.16
2022-08-17T06:14:12.339Z,94810.03
2022-08-17T06:16:44.596Z,94800.78
2022-08-17T06:19:31.593Z,94805.78
2022-08-17T06:21:59.017Z,94811.94
2022-08-17T06:24:39.608Z,94812.50
2022-08-17T06:27:18.538Z,94806.19
2022-08-17T06:30:02.427Z,94798.50
2022-08-17T06:32:29.819Z,94801.91
2022-08-17T06:34:57.764Z,94802.63
2022-08-17T06:37:41.208Z,94806.13
2022-08-17T06:40:26.674Z,94805.75
2022-08-17T06:43:19.444Z,94808.94
2022-08-17T06:45:57.632Z,94807.75
2022-08-17T06:48:33.680Z,94806.28
2022-08-17T06:51:07.239Z,94809.16
2022-08-17T06:53:46.516Z,94804.78
2022-08-17T06:56:23.748Z,94800.44
2022-08-17T06:58:55.938Z,94818.00
2022-08-17T07:01:30.923Z,94807.25
2022-08-17T07:04:13.108Z,94817.13
2022-08-17T07:06:39.830Z,94817.47
2022-08-17T07:09:28.157Z,94823.75
2022-08-17T07:12:05.422Z,94819.34
2022-08-17T07:14:41.114Z,94821.41
2022-08-17T07:17:14.100Z,94807.78
2022-08-17T07:19:45.733Z,94822.03
2022-08-17T07:22:18.521Z,94812.16
2022-08-17T07:24:47.217Z,94813.38
2022-08-17T07:27:21.950Z,94818.88
2022-08-17T07:30:22.868Z,94819.34
2022-08-17T07:33:09.495Z,94812.13
2022-08-17T07:35:44.185Z,94808.38
2022-08-17T07:38:28.047Z,94809.97
2022-08-17T07:41:05.018Z,94813.69
2022-08-17T07:43:40.636Z,94812.72
2022-08-17T07:46:50.523Z,94814.72
2022-08-17T07:49:32.173Z,94810.13
2022-08-17T07:52:47.302Z,94802.56
2022-08-17T07:54:49.337Z,94801.31
2022-08-17T07:57:19.451Z,94809.88
2022-08-17T08:00:16.998Z,94797.00
2022-08-17T08:02:47.689Z,94799.13
2022-08-17T08:05:48.754Z,94799.94
2022-08-17T08:08:33.226Z,94798.88
2022-08-17T08:11:07.471Z,94802.91
2022-08-17T08:13:36.063Z,94798.34
2022-08-17T08:16:19.934Z,94798.16
2022-08-17T08:18:56.115Z,94799.53
2022-08-17T08:22:02.352Z,94802.91
2022-08-17T08:25:07.972Z,94791.22
2022-08-17T08:27:41.038Z,94796.91
2022-08-17T08:30:15.130Z,94790.69
2022-08-17T08:33:27.398Z,94794.97
2022-08-17T08:36:07.534Z,94794.28
2022-08-17T08:39:15.995Z,94794.44
2022-08-17T08:42:00.740Z,94788.19
2022-08-17T08:45:00.998Z,94786.16
2022-08-17T08:47:44.278Z,94788.44
2022-08-17T08:50:37.949Z,94790.66
2022-08-17T08:53:15.140Z,94790.91
2022-08-17T08:55:50.796Z,94779.75
2022-08-17T08:58:50.842Z,94780.34
2022-08-17T09:01:34.380Z,94777.09
2022-08-17T09:04:29.366Z,94782.44
2022-08-17T09:07:34.957Z,94780.41
2022-08-17T09:10:30.951Z,94781.91
2022-08-17T09:13:22.066Z,94778.97
2022-08-17T09:15:57.650Z,94787.53
2022-08-17T09:18:59.305Z,94779.59
2022-08-17T09:21:54.591Z,94779.75
2022-08-17T09:24:32.035Z,94777.53
2022-08-17T09:27:23.759Z,94766.06
2022-08-17T09:30:18.334Z,94769.31
2022-08-17T09:32:55.466Z,94773.13
2022-08-17T09:36:07.485Z,94776.28
2022-08-17T09:39:00.297Z,94769.19
2022-08-17T09:41:49.196Z,94765.84
2022-08-17T09:44:40.583Z,94756.59
2022-08-17T09:47:26.261Z,94768.94
2022-08-17T09:49:58.746Z,94770.94
2022-08-17T09:52:28.549Z,94762.97
2022-08-17T09:54:57.723Z,94750.59
2022-08-17T09:58:04.992Z,94756.16
2022-08-17T10:00:37.516Z,94755.09
2022-08-17T10:03:32.458Z,94756.22
2022-08-17T10:06:13.285Z,94753.78
2022-08-17T10:08:52.462Z,94756.13
2022-08-17T10:11:53.085Z,94747.69
2022-08-17T10:14:57.173Z,94747.03
2022-08-17T10:17:50.645Z,94742.97
2022-08-17T10:20:30.852Z,94742.31
2022-08-17T10:23:29.955Z,94742.63
2022-08-17T10:26:15.934Z,94728.63
2022-08-17T10:29:15.783Z,94740.69
2022-08-17T10:32:08.782Z,94740.13
2022-08-17T10:34:40.391Z,94742.81
2022-08-17T10:37:43.201Z,94739.38
2022-08-17T10:40:34.692Z,94740.25
2022-08-17T10:44:36.563Z,94726.00
2022-08-17T10:47:04.384Z,94728.13
2022-08-17T10:49:38.930Z,94739.94
2022-08-17T10:52:21.839Z,94733.63
2022-08-17T10:55:12.367Z,94727.47
2022-08-17T10:57:45.263Z,94729.63
2022-08-17T11:00:27.900Z,94732.78
2022-08-17T11:02:56.095Z,94725.44
2022-08-17T11:05:52.294Z,94737.44
2022-08-17T11:08:39.285Z,94744.06
2022-08-17T11:11:25.939Z,94746.34
2022-08-17T11:14:14.784Z,94748.47
2022-08-17T11:16:48.069Z,94753.38
2022-08-17T11:19:37.371Z,94761.09
2022-08-17T11:22:31.311Z,94755.00
2022-08-17T11:25:13.037Z,94750.31
2022-08-17T11:27:40.549Z,94767.31
2022-08-17T11:30:29.513Z,94752.44
2022-08-17T11:32:58.436Z,94748.56
2022-08-17T11:35:38.342Z,94754.44
2022-08-17T11:38:05.186Z,94747.09
2022-08-17T11:41:18.641Z,94751.13
2022-08-17T11:44:19.265Z,94741.97
2022-08-17T11:47:29.703Z,94760.34
2022-08-17T11:50:27.754Z,94763.09
2022-08-17T11:52:55.492Z,94773.34
2022-08-17T11:55:39.343Z,94766.44
2022-08-17T11:58:30.496Z,94765.50
2022-08-17T12:00:57.270Z,94766.69
2022-08-17T12:03:36.955Z,94769.00
2022-08-17T12:06:19.529Z,94773.41
2022-08-17T12:08:56.829Z,94768.47
2022-08-17T12:11:55.338Z,94767.50
2022-08-17T12:15:07.967Z,94770.25
2022-08-17T12:17:40.389Z,94764.28
2022-08-17T12:20:24.067Z,94767.44
2022-08-17T12:23:04.531Z,94765.31
2022-08-17T12:25:39.191Z,94767.53
2022-08-17T12:28:22.219Z,94764.97
2022-08-17T12:30:51.911Z,94758.38
2022-08-17T12:33:25.581Z,94766.56
2022-08-17T12:36:04.176Z,94759.75
2022-08-17T12:38:34.673Z,94764.13
2022-08-17T12:41:25.321Z,94763.78
2022-08-17T12:44:02.271Z,94756.81
2022-08-17T12:46:45.289Z,94749.69
2022-08-17T12:49:14.694Z,94750.69
2022-08-17T12:51:48.191Z,94739.50
2022-08-17T12:54:37.782Z,94743.22
2022-08-17T12:57:12.051Z,94736.03
2022-08-17T13:00:00.908Z,94726.69
2022-08-17T13:02:37.887Z,94723.22
2022-08-17T13:05:06.001Z,94719.75
2022-08-17T13:07:42.621Z,94722.59
2022-08-17T13:10:18.304Z,94725.22
2022-08-17T13:12:45.212Z,94728.84
2022-08-17T13:15:33.688Z,94730.59
2022-08-17T13:18:10.744Z,94730.19
2022-08-17T13:20:37.713Z,94729.06
2022-08-17T13:23:11.965Z,94734.44
2022-08-17T13:25:41.050Z,94733.41
2022-08-17T13:28:18.446Z,94724.63
2022-08-17T13:31:26.336Z,94736.03
2022-08-17T13:33:53.187Z,94741.28
2022-08-17T13:36:30.420Z,94728.03
2022-08-17T13:39:17.612Z,94738.44
2022-08-17T13:41:45.525Z,94729.59
2022-08-17T13:44:32.889Z,94742.91
2022-08-17T13:47:00.807Z,94735.16
2022-08-17T13:49:48.449Z,94740.06
2022-08-17T13:52:39.500Z,94741.06
2022-08-17T13:55:20.682Z,94729.34
2022-08-17T13:58:06.546Z,94737.50
2022-08-17T14:00:36.753Z,94735.31
2022-08-17T14:03:05.228Z,94738.72
2022-08-17T14:05:32.516Z,94734.41
2022-08-17T14:08:07.107Z,94726.38
2022-08-17T14:10:36.500Z,94724.63
2022-08-17T14:13:05.344Z,94718.16
2022-08-17T14:15:56.021Z,94727.53
2022-08-17T14:18:55.563Z,94729.50
2022-08-17T14:21:08.488Z,94718.97
2022-08-17T14:23:36.783Z,94722.94
2022-08-17T14:26:04.083Z,94714.16
2022-08-17T14:28:30.942Z,94722.31
2022-08-17T14:31:00.406Z,94715.69
2022-08-17T14:33:28.933Z,94720.25
2022-08-17T14:35:56.029Z,94683.56
2022-08-17T14:38:23.349Z,94715.97
2022-08-17T14:40:50.303Z,94714.69
2022-08-17T14:43:17.888Z,94723.03
2022-08-17T14:45:44.721Z,94720.03
2022-08-17T14:48:11.547Z,94713.47
2022-08-17T14:50:41.901Z,94717.47
2022-08-17T14:53:11.259Z,94729.56
2022-08-17T14:55:40.626Z,94716.22
2022-08-17T14:58:08.996Z,94719.41
2022-08-17T15:00:37.051Z,94715.81
2022-08-17T15:03:04.346Z,94713.88
2022-08-17T15:05:36.654Z,94712.16
2022-08-17T15:08:05.609Z,94716.09
2022-08-17T15:10:33.006Z,94707.84
2022-08-17T15:13:00.486Z,94707.44
2022-08-17T15:15:28.549Z,94711.56
2022-08-17T15:17:55.688Z,94726.03
2022-08-17T15:20:28.046Z,94717.91
2022-08-17T15:22:57.253Z,94708.13
2022-08-17T15:25:27.510Z,94716.75
2022-08-17T15:27:55.890Z,94699.97
2022-08-17T15:30:24.258Z,94713.72
2022-08-17T15:32:55.258Z,94713.59
2022-08-17T15:35:28.198Z,94708.94
2022-08-17T15:38:10.637Z,94707.78
2022-08-17T15:40:42.919Z,94711.19
2022-08-17T15:43:14.491Z,94703.13
2022-08-17T15:45:41.512Z,94699.72
2022-08-17T15:48:09.048Z,94722.84
2022-08-17T15:50:36.769Z,94718.41
2022-08-17T15:53:04.911Z,94704.69
2022-08-17T15:55:32.799Z,94702.34
2022-08-17T15:58:00.231Z,94707.31
2022-08-17T16:00:29.311Z,94709.41
2022-08-17T16:03:45.398Z,94714.06
2022-08-17T16:05:46.806Z,94684.44
2022-08-17T16:08:20.939Z,94718.13
2022-08-17T16:10:49.770Z,94705.81
2022-08-17T16:13:18.356Z,94710.41
2022-08-17T16:15:56.602Z,94697.94
2022-08-17T16:18:31.378Z,94712.81
2022-08-17T16:21:23.359Z,94713.09
2022-08-17T16:23:52.843Z,94719.09
2022-08-17T16:26:19.823Z,94718.00
2022-08-17T16:28:47.035Z,94720.63
2022-08-17T16:31:15.171Z,94716.41
2022-08-17T16:33:43.045Z,94717.41
2022-08-17T16:36:29.895Z,94712.91
2022-08-17T16:38:57.186Z,94713.31
2022-08-17T16:41:42.619Z,94712.34
2022-08-17T16:44:09.364Z,94720.19
2022-08-17T16:46:45.621Z,94720.19
2022-08-17T16:49:35.557Z,94723.28
2022-08-17T16:52:02.950Z,94721.78
2022-08-17T16:54:29.769Z,94720.38
2022-08-17T16:56:56.533Z,94715.78
2022-08-17T16:59:38.826Z,94720.91
2022-08-17T17:02:10.911Z,94720.31
2022-08-17T17:05:25.206Z,94719.25
2022-08-17T17:08:03.864Z,94722.66
2022-08-17T17:10:39.613Z,94721.44
2022-08-17T17:13:26.283Z,94717.03
2022-08-17T17:16:01.209Z,94721.97
2022-08-17T17:18:42.739Z,94716.03
2022-08-17T17:21:16.804Z,94720.13
2022-08-17T17:23:59.732Z,94738.16
2022-08-17T17:27:02.999Z,94734.72
2022-08-17T17:30:00.299Z,94732.81
2022-08-17T17:32:40.221Z,94741.38
2022-08-17T17:35:18.267Z,94755.72
2022-08-17T17:37:46.949Z,94750.56
2022-08-17T17:40:20.552Z,94743.81
2022-08-17T17:42:49.171Z,94742.56
2022-08-17T17:45:26.272Z,94753.66
2022-08-17T17:47:53.372Z,94746.28
2022-08-17T17:50:29.058Z,94757.91
2022-08-17T17:53:35.146Z,94754.28
2022-08-17T17:56:44.240Z,94755.31
2022-08-17T17:59:33.188Z,94758.91
2022-08-17T18:02:41.730Z,94767.78
2022-08-17T18:05:38.712Z,94764.88
2022-08-17T18:08:33.836Z,94769.63
2022-08-17T18:11:24.038Z,94772.78
2022-08-17T18:14:14.451Z,94766.97
2022-08-17T18:16:45.190Z,94771.81
2022-08-17T18:19:20.729Z,94778.19
2022-08-17T18:21:52.892Z,94779.91
2022-08-17T18:24:34.020Z,94777.81
2022-08-17T18:27:08.489Z,94785.25
2022-08-17T18:29:43.373Z,94780.50
2022-08-17T18:32:19.151Z,94788.22
2022-08-17T18:34:48.739Z,94788.91
2022-08-17T18:37:53.069Z,94793.16
2022-08-17T18:40:19.987Z,94793.03
2022-08-17T18:43:03.139Z,94795.25
2022-08-17T18:45:51.132Z,94796.69
2022-08-17T18:48:36.566Z,94801.72
2022-08-17T18:51:42.073Z,94797.25
2022-08-17T18:54:24.522Z,94808.06
2022-08-17T18:57:00.536Z,94810.59
2022-08-17T18:59:49.652Z,94810.59
2022-08-17T19:02:36.084Z,94812.63
2022-08-17T19:05:09.099Z,94814.66
2022-08-17T19:07:46.297Z,94814.66
2022-08-17T19:10:22.372Z,94814.97
2022-08-17T19:12:55.298Z,94824.22
2022-08-17T19:15:35.846Z,94827.03
2022-08-17T19:18:30.745Z,94826.84
2022-08-17T19:21:10.040Z,94820.91
2022-08-17T19:23:54.087Z,94819.81
2022-08-17T19:26:50.656Z,94795.81
2022-08-17T19:30:07.791Z,94815.53
2022-08-17T19:32:36.265Z,94815.97
2022-08-17T19:35:07.555Z,94820.19
2022-08-17T19:37:56.561Z,94811.41
2022-08-17T19:40:58.533Z,94804.91
2022-08-17T19:43:37.995Z,94822.22
2022-08-17T19:46:13.637Z,94825.06
2022-08-17T19:48:55.331Z,94821.41
2022-08-17T19:51:40.970Z,94830.09
2022-08-17T19:54:24.754Z,94827.38
2022-08-17T19:57:27.813Z,94824.09
2022-08-17T19:59:59.203Z,94799.38
2022-08-17T20:02:53.519Z,94828.06
2022-08-17T20:05:29.372Z,94831.44
2022-08-17T20:08:08.532Z,94840.69
2022-08-17T20:11:21.534Z,94830.88
2022-08-17T20:13:59.716Z,94842.47
2022-08-17T20:16:26.725Z,94838.72
2022-08-17T20:19:39.393Z,94837.75
2022-08-17T20:22:16.844Z,94840.72
2022-08-17T20:24:45.530Z,94815.88
2022-08-17T20:27:12.299Z,94830.69
2022-08-17T20:30:09.820Z,94840.19
2022-08-17T20:32:48.757Z,94841.88
2022-08-17T20:35:26.476Z,94839.44
2022-08-17T20:37:57.565Z,94822.97
2022-08-17T20:40:49.360Z,94838.06
2022-08-17T20:43:49.312Z,94841.97
2022-08-17T20:46:38.316Z,94839.41
2022-08-17T20:49:14.924Z,94836.25
2022-08-17T20:52:00.692Z,94825.94
2022-08-17T20:54:50.135Z,94840.72
2022-08-17T20:57:32.382Z,94841.09
2022-08-17T21:00:17.550Z,94843.94
2022-08-17T21:02:49.794Z,94841.31
2022-08-17T21:05:59.757Z,94848.66
2022-08-17T21:08:53.354Z,94848.75
2022-08-17T21:12:02.148Z,94852.03
2022-08-17T21:14:39.429Z,94848.41
2022-08-17T21:18:01.532Z,94845.91
2022-08-17T21:20:49.478Z,94852.94
2022-08-17T21:23:38.021Z,94850.72
2022-08-17T21:26:30.838Z,94853.78
2022-08-17T21:29:29.775Z,94845.50
2022-08-17T21:32:03.614Z,94855.50
2022-08-17T21:34:35.108Z,94849.25
2022-08-17T21:37:20.514Z,94848.69
2022-08-17T21:39:52.242Z,94841.38
2022-08-17T21:42:26.664Z,94856.50
2022-08-17T21:44:58.113Z,94860.22
2022-08-17T21:47:29.350Z,94856.06
2022-08-17T21:50:16.129Z,94862.28
2022-08-17T21:52:43.614Z,94854.22
2022-08-17T21:55:29.101Z,94855.00
2022-08-17T21:58:14.277Z,94851.44
2022-08-17T22:00:45.347Z,94857.94
2022-08-17T22:03:24.096Z,94865.34
2022-08-17T22:05:51.549Z,94851.16
2022-08-17T22:08:22.244Z,94851.00
2022-08-17T22:10:51.562Z,94870.78
2022-08-17T22:13:18.327Z,94866.56
2022-08-17T22:16:15.710Z,94865.56
2022-08-17T22:18:58.206Z,94855.63
2022-08-17T22:21:27.326Z,94851.25
2022-08-17T22:24:15.793Z,94844.78
2022-08-17T22:27:10.497Z,94864.16
2022-08-17T22:29:45.253Z,94857.88
2022-08-17T22:32:49.441Z,94841.25
2022-08-17T22:35:39.691Z,94863.34
2022-08-17T22:38:18.906Z,94855.50
2022-08-17T22:40:50.087Z,94854.53
2022-08-17T22:43:26.050Z,94847.25
2022-08-17T22:45:59.088Z,94842.13
2022-08-17T22:48:29.325Z,94841.13
2022-08-17T22:51:13.790Z,94848.41
2022-08-17T22:54:13.487Z,94843.47
2022-08-17T22:57:15.618Z,94853.22
2022-08-17T22:59:54.580Z,94854.34
2022-08-17T23:02:28.078Z,94855.38
2022-08-17T23:05:13.208Z,94854.34
2022-08-17T23:07:40.593Z,94834.22
2022-08-17T23:10:10.303Z,94850.28
2022-08-17T23:12:39.157Z,94854.56
2022-08-17T23:15:14.469Z,94853.03
2022-08-17T23:17:42.293Z,94844.19
2022-08-17T23:20:15.205Z,94849.19
2022-08-17T23:22:51.456Z,94847.63
2022-08-17T23:25:28.217Z,94855.75
2022-08-17T23:27:57.692Z,94853.63
2022-08-17T23:30:25.743Z,94852.56
2022-08-17T23:32:54.520Z,94847.56
2022-08-17T23:35:40.370Z,94837.34
2022-08-17T23:38:12.689Z,94839.47
2022-08-17T23:40:40.979Z,94850.56
2022-08-17T23:43:24.225Z,94851.16
2022-08-17T23:45:58.186Z,94827.03
2022-08-17T23:48:35.678Z,94840.13
2022-08-17T23:51:08.790Z,94836.50
2022-08-17T23:53:37.140Z,94844.31
2022-08-17T23:56:10.450Z,94837.81
2022-08-17T23:58:43.152Z,94831.72
